Terminal Aerodrome Forecast
Issued by NWS

Home | Current Version | Previous Version | Text Only | Print | Product List | Glossary On
Versions: 1 2 3 4 5 6 7 8 9 10 11 12 13 14 15 16 17 18 19 20 21 22 23 24
000
FTUS44 KLZK 041700
TAFHRO
TAF
KHRO 041720Z 0418/0518 13006KT P6SM VCSH BKN025 BKN050
     FM042100 20007KT P6SM SCT025 BKN050
     FM050100 VRB03KT P6SM SCT050
      TEMPO 0510/0514 3SM BR
     FM051400 26006KT P6SM BKN050 BKN120=

USA.gov is the U.S. government's official web portal to all federal, state and local government web resources and services.